createdAt,value
2022-11-08T00:01:31.930Z,7.25
2022-11-08T00:07:22.158Z,7.23
2022-11-08T00:13:12.293Z,7.21
2022-11-08T00:18:43.857Z,7.19
2022-11-08T00:24:14.923Z,7.22
2022-11-08T00:29:46.526Z,7.23
2022-11-08T00:35:17.634Z,7.23
2022-11-08T00:40:48.710Z,7.24
2022-11-08T00:46:20.236Z,7.22
2022-11-08T00:51:51.587Z,7.19
2022-11-08T00:57:40.854Z,7.19
2022-11-08T01:03:20.343Z,7.17
2022-11-08T01:08:51.786Z,7.15
2022-11-08T01:14:23.013Z,7.13
2022-11-08T01:19:54.093Z,7.14
2022-11-08T01:25:25.802Z,7.11
2022-11-08T01:30:57.117Z,7.11
2022-11-08T01:36:28.998Z,7.09
2022-11-08T01:41:59.970Z,7.07
2022-11-08T01:47:31.202Z,7.06
2022-11-08T01:53:02.276Z,7.05
2022-11-08T01:58:35.149Z,7.05
2022-11-08T02:04:06.639Z,7.05
2022-11-08T02:09:39.284Z,7.05
2022-11-08T02:15:11.358Z,7.05
2022-11-08T02:21:17.864Z,7.05
2022-11-08T02:26:50.515Z,7.04
2022-11-08T02:32:21.618Z,7.05
2022-11-08T02:37:53.316Z,7.04
2022-11-08T02:43:25.147Z,7.03
2022-11-08T02:48:56.593Z,7.00
2022-11-08T02:54:28.018Z,6.99
2022-11-08T02:59:59.449Z,6.96
2022-11-08T03:05:30.480Z,6.95
2022-11-08T03:11:01.851Z,6.93
2022-11-08T03:16:33.196Z,6.92
2022-11-08T03:22:04.496Z,6.91
2022-11-08T03:27:35.705Z,6.91
2022-11-08T03:33:07.024Z,6.89
2022-11-08T03:38:38.681Z,6.87
2022-11-08T03:44:10.067Z,6.87
2022-11-08T03:49:41.477Z,6.86
2022-11-08T03:55:12.702Z,6.85
2022-11-08T04:00:43.842Z,6.83
2022-11-08T04:06:15.167Z,6.83
2022-11-08T04:12:05.384Z,6.82
2022-11-08T04:17:55.294Z,6.81
2022-11-08T04:23:27.065Z,6.80
2022-11-08T04:29:03.356Z,6.78
2022-11-08T04:34:34.527Z,6.78
2022-11-08T04:40:06.491Z,6.76
2022-11-08T04:45:38.230Z,6.75
2022-11-08T04:51:13.689Z,6.74
2022-11-08T04:56:44.671Z,6.72
2022-11-08T05:02:16.065Z,6.72
2022-11-08T05:07:47.271Z,6.71
2022-11-08T05:13:18.656Z,6.70
2022-11-08T05:18:50.432Z,6.67
2022-11-08T05:24:22.701Z,6.68
2022-11-08T05:29:53.893Z,6.63
2022-11-08T05:35:25.133Z,6.62
2022-11-08T05:40:56.451Z,6.61
2022-11-08T05:46:27.349Z,6.60
2022-11-08T05:51:58.747Z,6.59
2022-11-08T05:57:30.177Z,6.58
2022-11-08T06:03:03.300Z,6.56
2022-11-08T06:08:35.495Z,6.54
2022-11-08T06:14:06.997Z,6.53
2022-11-08T06:19:38.798Z,6.53
2022-11-08T06:25:11.165Z,6.50
2022-11-08T06:30:42.306Z,6.50
2022-11-08T06:36:13.593Z,6.48
2022-11-08T06:41:44.764Z,6.48
2022-11-08T06:47:15.995Z,6.48
2022-11-08T06:52:47.065Z,6.45
2022-11-08T06:58:18.263Z,6.44
2022-11-08T07:03:49.584Z,6.44
2022-11-08T07:09:20.634Z,6.44
2022-11-08T07:14:51.990Z,6.45
2022-11-08T07:20:23.297Z,6.49
2022-11-08T07:25:54.635Z,6.52
2022-11-08T07:31:26.034Z,6.57
2022-11-08T07:36:57.434Z,6.62
2022-11-08T07:42:49.774Z,6.70
2022-11-08T07:48:19.853Z,6.74
2022-11-08T07:53:51.186Z,6.78
2022-11-08T07:59:22.436Z,6.85
2022-11-08T08:04:53.602Z,6.90
2022-11-08T08:10:24.722Z,6.98
2022-11-08T08:15:58.995Z,7.05
2022-11-08T08:21:30.624Z,7.11
2022-11-08T08:27:02.100Z,7.16
2022-11-08T08:32:33.463Z,7.24
2022-11-08T08:38:05.398Z,7.32
2022-11-08T08:43:36.640Z,7.38
2022-11-08T08:49:08.300Z,7.46
2022-11-08T08:54:39.466Z,7.54
2022-11-08T09:06:03.060Z,7.77
2022-11-08T09:11:34.597Z,7.85
2022-11-08T09:17:05.616Z,7.92
2022-11-08T09:22:37.474Z,7.98
2022-11-08T09:28:09.688Z,8.05
2022-11-08T09:33:41.315Z,8.11
2022-11-08T09:39:12.353Z,8.16
2022-11-08T09:45:02.346Z,8.23
2022-11-08T09:50:44.375Z,8.33
2022-11-08T09:56:23.623Z,8.40
2022-11-08T10:01:54.893Z,8.49
2022-11-08T10:07:34.053Z,8.58
2022-11-08T10:13:30.338Z,8.69
2022-11-08T10:19:15.516Z,8.79
2022-11-08T10:25:01.594Z,8.90
2022-11-08T10:30:36.274Z,8.97
2022-11-08T10:36:11.731Z,9.04
2022-11-08T10:41:56.971Z,9.12
2022-11-08T10:47:30.397Z,9.22
2022-11-08T10:53:03.573Z,9.29
2022-11-08T10:58:42.398Z,9.38
2022-11-08T11:04:35.110Z,9.48
2022-11-08T11:10:23.139Z,9.56
2022-11-08T11:15:58.609Z,9.62
2022-11-08T11:21:40.541Z,9.67
2022-11-08T11:27:26.430Z,9.73
2022-11-08T11:33:20.494Z,9.78
2022-11-08T11:39:05.142Z,9.84
2022-11-08T11:44:36.836Z,9.87
2022-11-08T11:50:28.212Z,9.95
2022-11-08T11:56:15.599Z,10.01
2022-11-08T12:01:53.005Z,10.06
2022-11-08T12:07:32.932Z,10.10
2022-11-08T12:13:13.474Z,10.15
2022-11-08T12:19:05.214Z,10.21
2022-11-08T12:24:47.610Z,10.27
2022-11-08T12:30:21.824Z,10.27
2022-11-08T12:36:12.223Z,10.30
2022-11-08T12:42:01.340Z,10.35
2022-11-08T12:47:54.250Z,10.34
2022-11-08T12:53:29.633Z,10.32
2022-11-08T12:59:00.849Z,10.30
2022-11-08T13:04:40.602Z,10.30
2022-11-08T13:10:25.250Z,10.35
2022-11-08T13:16:17.712Z,10.34
2022-11-08T13:21:48.937Z,10.37
2022-11-08T13:27:31.451Z,10.38
2022-11-08T13:33:15.902Z,10.36
2022-11-08T13:39:00.383Z,10.35
2022-11-08T13:44:56.592Z,10.32
2022-11-08T13:50:38.287Z,10.29
2022-11-08T13:56:10.401Z,10.28
2022-11-08T14:01:47.395Z,10.26
2022-11-08T14:07:37.146Z,10.23
2022-11-08T14:13:15.611Z,10.23
2022-11-08T14:18:47.481Z,10.22
2022-11-08T14:24:26.050Z,10.21
2022-11-08T14:30:00.724Z,10.19
2022-11-08T14:35:31.843Z,10.18
2022-11-08T14:41:05.477Z,10.16
2022-11-08T14:46:39.552Z,10.15
2022-11-08T14:52:17.640Z,10.12
2022-11-08T14:57:49.093Z,10.10
2022-11-08T15:03:20.465Z,10.08
2022-11-08T15:08:53.716Z,10.04
2022-11-08T15:14:27.270Z,10.02
2022-11-08T15:20:13.407Z,9.99
2022-11-08T15:25:44.743Z,9.97
2022-11-08T15:31:15.788Z,9.93
2022-11-08T15:36:47.953Z,9.91
2022-11-08T15:42:19.250Z,9.89
2022-11-08T15:47:50.597Z,9.89
2022-11-08T15:53:21.961Z,9.91
2022-11-08T15:58:53.050Z,9.89
2022-11-08T16:04:24.543Z,9.91
2022-11-08T16:09:56.047Z,9.91
2022-11-08T16:15:30.588Z,9.88
2022-11-08T16:21:02.135Z,9.83
2022-11-08T16:26:33.058Z,9.77
2022-11-08T16:32:04.259Z,9.74
2022-11-08T16:37:35.562Z,9.68
2022-11-08T16:43:10.542Z,9.66
2022-11-08T16:48:46.671Z,9.65
2022-11-08T16:54:20.813Z,9.62
2022-11-08T16:59:51.758Z,9.60
2022-11-08T17:05:24.231Z,9.58
2022-11-08T17:10:56.240Z,9.57
2022-11-08T17:16:27.430Z,9.54
2022-11-08T17:21:58.711Z,9.52
2022-11-08T17:27:29.889Z,9.48
2022-11-08T17:33:01.085Z,9.46
2022-11-08T17:38:34.783Z,9.43
2022-11-08T17:44:06.017Z,9.38
2022-11-08T17:49:42.752Z,9.34
2022-11-08T17:55:15.632Z,9.31
2022-11-08T18:00:47.235Z,9.27
2022-11-08T18:06:18.609Z,9.23
2022-11-08T18:11:50.297Z,9.20
2022-11-08T18:17:22.480Z,9.19
2022-11-08T18:22:53.647Z,9.18
2022-11-08T18:28:25.013Z,9.15
2022-11-08T18:33:57.462Z,9.12
2022-11-08T18:39:28.534Z,9.08
2022-11-08T18:44:59.749Z,9.07
2022-11-08T18:50:30.821Z,9.05
2022-11-08T18:56:01.819Z,9.04
2022-11-08T19:01:33.263Z,8.99
2022-11-08T19:07:04.489Z,8.97
2022-11-08T19:12:35.679Z,8.96
2022-11-08T19:18:06.664Z,8.93
2022-11-08T19:23:39.349Z,8.89
2022-11-08T19:29:12.488Z,8.86
2022-11-08T19:34:45.568Z,8.86
2022-11-08T19:40:16.964Z,8.84
2022-11-08T19:45:53.120Z,8.83
2022-11-08T19:51:26.547Z,8.81
2022-11-08T19:57:06.336Z,8.80
2022-11-08T20:02:38.260Z,8.77
2022-11-08T20:08:10.292Z,8.74
2022-11-08T20:13:41.450Z,8.72
2022-11-08T20:19:15.399Z,8.69
2022-11-08T20:24:46.963Z,8.69
2022-11-08T20:30:18.331Z,8.66
2022-11-08T20:35:49.524Z,8.64
2022-11-08T20:41:20.771Z,8.62
2022-11-08T20:46:51.924Z,8.60
2022-11-08T20:52:26.963Z,8.57
2022-11-08T20:57:58.310Z,8.56
2022-11-08T21:03:30.428Z,8.52
2022-11-08T21:09:14.407Z,8.48
2022-11-08T21:14:53.078Z,8.44
2022-11-08T21:20:24.872Z,8.40
2022-11-08T21:25:56.245Z,8.36
2022-11-08T21:31:27.088Z,8.34
2022-11-08T21:36:58.796Z,8.26
2022-11-08T21:42:31.436Z,8.21
2022-11-08T21:48:06.213Z,8.20
2022-11-08T21:53:48.138Z,8.14
2022-11-08T21:59:25.060Z,8.11
2022-11-08T22:04:56.572Z,8.07
2022-11-08T22:10:27.765Z,8.05
2022-11-08T22:15:58.965Z,8.03
2022-11-08T22:21:39.635Z,8.00
2022-11-08T22:27:11.302Z,7.95
2022-11-08T22:32:42.411Z,7.93
2022-11-08T22:38:14.466Z,7.93
2022-11-08T22:43:46.469Z,7.91
2022-11-08T22:49:17.689Z,7.87
2022-11-08T22:54:48.629Z,7.85
2022-11-08T23:00:21.429Z,7.84
2022-11-08T23:05:54.473Z,7.83
2022-11-08T23:11:44.456Z,7.82
2022-11-08T23:17:15.823Z,7.79
2022-11-08T23:23:05.830Z,7.80
2022-11-08T23:28:55.683Z,7.78
2022-11-08T23:34:26.994Z,7.74
2022-11-08T23:40:16.772Z,7.76
2022-11-08T23:45:47.898Z,7.71
2022-11-08T23:51:19.159Z,7.74
2022-11-08T23:56:51.505Z,7.70
